Лондон, United Kingdom

09:18 AM BST на 25 Април, 2018 (GMT +0100)
IBUCKSIV1 | | Change Station

Elev 112 ft 51.50 °N, 0.51 °W | Updated 4 seconds ago

Умерено облачно
Умерено облачно
54.0 °F
Feels Like 54.0 °F
С
0.0
Ветер Променлив Ветер from Исток
Gusts 0.0 mph

Денес
High -- | Low -- °F
--% Chance of Precip.
Вчера
High -- | Low -- °F
Precip. -- инчи
Притисок 29.89 инчи
Видливост 6.2 миљи
Облаци Делумно облачно 2000 ft
Точка на kондензација 39 °F
Влажност 60%
Дожд 0.00 инчи
Височина на снег Not available.
5:45 AM 8:15 PM
Вториот квартал, 76% visible
SPECI EGWU 250810Z 27014KT 9999 SCT020 12/06 Q1012 WHT BECMG SCT025 BLU
Притисок 29.89 инчи
Видливост 6.2 миљи
Облаци Делумно облачно 2000 ft
Точка на kондензација 39 °F
Влажност 60%
Дожд 0.00 инчи
Височина на снег Not available.
5:45 AM 8:15 PM
Вториот квартал, 76% visible
SPECI EGWU 250810Z 27014KT 9999 SCT020 12/06 Q1012 WHT BECMG SCT025 BLU

Get Severe Weather Alerts

Thanks for signing up!

Be on the lookout for a verification email in your inbox.

You'll start receiving the daily forecast at 6 AM.

×

10-Day Weather Forecast

×

Almanac

Астрономијата

Apr. 25, 2018 Изгревање Заоѓање
Актуелно време
Граѓанскиот самрак
Наутички самрак
Астрономски самрак
Месечината
Должина на видливата светлина
Должина на денот
Tomorrow will be .
, % of the Moon is Illuminated

Екстреми денес

Country Highs Country Lows

Community

WunderPhotos

Category 6

Welcome to Category 6. This is the collective home for Weather Underground's featured writeups by Dr. Jeff Masters (right), Bob Henson (left), Chris Burt, and other regular contributors.

Nearby

Квалитетот на воздухот

  Квалитетот на воздухот AQ индекс Загадувач
Not available.

Височина на снег

Station Depth Висина

Earthquake Activity

Град Distance Mag. Time & Date
Minimum magnitude displayed is 2.5.

Coastal Water Temperatures

Место Температура

Stations

Nearby Weather Stations

Локација на станицата Темп. Лични чувство за темп. со ветерот Точка на kондензација Влажност Ветер Precip. Elev Ажурирани Тип